createdAt,value
2022-08-21T00:00:25.523Z,23.79
2022-08-21T00:01:25.506Z,23.69
2022-08-21T00:02:25.555Z,23.90
2022-08-21T00:03:25.480Z,23.74
2022-08-21T00:04:25.966Z,23.85
2022-08-21T00:05:25.458Z,23.85
2022-08-21T00:06:25.433Z,23.79
2022-08-21T00:07:25.478Z,23.85
2022-08-21T00:08:25.407Z,23.85
2022-08-21T00:09:25.394Z,23.58
2022-08-21T00:10:25.388Z,23.63
2022-08-21T00:11:25.371Z,23.63
2022-08-21T00:12:25.355Z,23.85
2022-08-21T00:13:25.340Z,23.74
2022-08-21T00:14:25.324Z,23.58
2022-08-21T00:15:25.315Z,23.74
2022-08-21T00:16:25.296Z,23.63
2022-08-21T00:17:25.282Z,23.63
2022-08-21T00:18:25.268Z,23.79
2022-08-21T00:19:25.261Z,23.63
2022-08-21T00:20:25.595Z,23.79
2022-08-21T00:21:25.234Z,23.74
2022-08-21T00:22:25.213Z,23.85
2022-08-21T00:23:25.203Z,23.63
2022-08-21T00:24:25.186Z,23.85
2022-08-21T00:25:26.111Z,23.69
2022-08-21T00:26:25.159Z,23.63
2022-08-21T00:27:25.153Z,23.53
2022-08-21T00:28:25.135Z,23.79
2022-08-21T00:29:25.129Z,23.79
2022-08-21T00:30:25.101Z,23.74
2022-08-21T00:31:25.085Z,23.79
2022-08-21T00:32:25.069Z,23.53
2022-08-21T00:33:25.058Z,23.85
2022-08-21T00:34:25.041Z,23.74
2022-08-21T00:35:25.034Z,23.63
2022-08-21T00:36:25.015Z,23.69
2022-08-21T00:37:25.001Z,23.69
2022-08-21T00:38:24.997Z,23.31
2022-08-21T00:39:24.982Z,23.74
2022-08-21T00:40:24.971Z,23.69
2022-08-21T00:41:38.239Z,23.31
2022-08-21T00:42:25.959Z,23.79
2022-08-21T00:43:24.925Z,23.20
2022-08-21T00:44:24.907Z,23.79
2022-08-21T00:45:24.898Z,23.79
2022-08-21T00:46:28.062Z,23.63
2022-08-21T00:47:24.866Z,23.63
2022-08-21T00:48:24.847Z,23.63
2022-08-21T00:49:24.838Z,23.74
2022-08-21T00:50:24.824Z,23.74
2022-08-21T00:51:24.807Z,23.63
2022-08-21T00:52:24.792Z,23.47
2022-08-21T00:53:24.780Z,23.69
2022-08-21T00:54:24.770Z,23.26
2022-08-21T00:55:24.762Z,23.63
2022-08-21T00:56:24.741Z,23.79
2022-08-21T00:57:24.735Z,23.42
2022-08-21T00:58:24.713Z,23.63
2022-08-21T00:59:24.703Z,23.26
2022-08-21T01:00:24.683Z,23.26
2022-08-21T01:01:24.732Z,23.31
2022-08-21T01:02:24.658Z,23.69
2022-08-21T01:03:24.654Z,23.96
2022-08-21T01:04:24.632Z,23.63
2022-08-21T01:05:24.621Z,23.69
2022-08-21T01:06:24.609Z,23.63
2022-08-21T01:07:24.595Z,23.15
2022-08-21T01:08:24.577Z,23.63
2022-08-21T01:09:24.566Z,23.74
2022-08-21T01:10:24.737Z,23.26
2022-08-21T01:11:24.536Z,23.36
2022-08-21T01:12:24.521Z,23.58
2022-08-21T01:13:24.507Z,23.31
2022-08-21T01:14:24.493Z,23.31
2022-08-21T01:15:24.476Z,23.31
2022-08-21T01:16:24.463Z,23.36
2022-08-21T01:17:24.455Z,23.42
2022-08-21T01:18:24.438Z,23.26
2022-08-21T01:19:24.441Z,23.20
2022-08-21T01:20:32.730Z,23.42
2022-08-21T01:21:28.381Z,23.31
2022-08-21T01:22:24.385Z,23.47
2022-08-21T01:23:24.376Z,23.26
2022-08-21T01:24:24.359Z,22.67
2022-08-21T01:25:24.345Z,23.31
2022-08-21T01:26:24.327Z,22.99
2022-08-21T01:27:25.330Z,23.26
2022-08-21T01:28:24.298Z,23.36
2022-08-21T01:29:24.289Z,23.20
2022-08-21T01:30:24.276Z,23.63
2022-08-21T01:31:24.767Z,23.26
2022-08-21T01:32:24.247Z,23.47
2022-08-21T01:33:24.239Z,23.42
2022-08-21T01:34:24.214Z,23.20
2022-08-21T01:35:24.206Z,23.42
2022-08-21T01:36:24.191Z,23.31
2022-08-21T01:37:24.177Z,23.26
2022-08-21T01:38:24.159Z,23.63
2022-08-21T01:39:24.150Z,23.36
2022-08-21T01:40:24.215Z,23.26
2022-08-21T01:41:24.120Z,23.26
2022-08-21T01:42:24.109Z,23.42
2022-08-21T01:43:32.367Z,23.26
2022-08-21T01:44:25.107Z,23.42
2022-08-21T01:45:24.073Z,23.63
2022-08-21T01:46:24.051Z,23.26
2022-08-21T01:47:24.049Z,23.15
2022-08-21T01:48:24.036Z,23.31
2022-08-21T01:49:24.016Z,23.42
2022-08-21T01:50:23.997Z,23.26
2022-08-21T01:51:23.989Z,23.31
2022-08-21T01:52:23.969Z,23.63
2022-08-21T01:53:27.938Z,23.26
2022-08-21T01:54:24.964Z,23.42
2022-08-21T01:55:23.931Z,23.36
2022-08-21T01:56:23.912Z,23.36
2022-08-21T01:57:26.359Z,23.20
2022-08-21T01:58:23.889Z,23.26
2022-08-21T01:59:23.882Z,23.42
2022-08-21T02:00:23.866Z,23.31
2022-08-21T02:01:23.917Z,23.31
2022-08-21T02:02:23.835Z,23.20
2022-08-21T02:03:26.401Z,23.26
2022-08-21T02:04:24.828Z,23.20
2022-08-21T02:05:23.795Z,23.31
2022-08-21T02:06:23.778Z,23.26
2022-08-21T02:07:23.773Z,23.26
2022-08-21T02:08:23.758Z,22.99
2022-08-21T02:09:24.349Z,23.31
2022-08-21T02:10:23.725Z,22.93
2022-08-21T02:11:23.716Z,23.20
2022-08-21T02:12:23.704Z,23.36
2022-08-21T02:14:40.286Z,23.20
2022-08-21T02:15:40.277Z,23.69
2022-08-21T02:16:40.261Z,23.26
2022-08-21T02:17:40.251Z,23.31
2022-08-21T02:18:40.227Z,23.36
2022-08-21T02:19:41.046Z,23.26
2022-08-21T02:20:40.201Z,23.53
2022-08-21T02:21:40.192Z,23.20
2022-08-21T02:22:40.174Z,23.26
2022-08-21T02:23:40.167Z,23.26
2022-08-21T02:24:53.972Z,23.36
2022-08-21T02:25:41.211Z,23.26
2022-08-21T02:26:40.132Z,23.31
2022-08-21T02:27:40.112Z,23.26
2022-08-21T02:28:40.100Z,23.26
2022-08-21T02:29:40.085Z,23.26
2022-08-21T02:30:40.068Z,23.26
2022-08-21T02:31:40.058Z,23.42
2022-08-21T02:32:40.043Z,23.26
2022-08-21T02:33:40.030Z,23.36
2022-08-21T02:34:40.015Z,23.10
2022-08-21T02:35:40.005Z,23.15
2022-08-21T02:36:39.991Z,23.04
2022-08-21T02:37:39.981Z,23.26
2022-08-21T02:38:39.959Z,23.31
2022-08-21T02:39:40.008Z,23.31
2022-08-21T02:40:39.933Z,23.31
2022-08-21T02:41:39.929Z,23.26
2022-08-21T02:42:39.901Z,23.20
2022-08-21T02:43:39.895Z,23.26
2022-08-21T02:44:39.874Z,23.31
2022-08-21T02:45:39.863Z,23.26
2022-08-21T02:46:39.852Z,23.47
2022-08-21T02:47:39.841Z,23.10
2022-08-21T02:48:39.824Z,23.53
2022-08-21T02:49:39.812Z,23.42
2022-08-21T02:50:39.801Z,23.36
2022-08-21T02:51:39.789Z,23.31
2022-08-21T02:52:39.773Z,23.42
2022-08-21T02:53:39.767Z,23.42
2022-08-21T02:54:39.744Z,23.20
2022-08-21T02:55:39.736Z,23.36
2022-08-21T02:56:39.719Z,23.47
2022-08-21T02:57:39.710Z,23.20
2022-08-21T02:58:39.690Z,23.26
2022-08-21T02:59:39.678Z,23.20
2022-08-21T03:00:39.659Z,23.42
2022-08-21T03:01:39.726Z,23.36
2022-08-21T03:02:39.640Z,23.31
2022-08-21T03:03:39.627Z,23.31
2022-08-21T03:04:42.313Z,23.20
2022-08-21T03:05:40.619Z,23.26
2022-08-21T03:06:39.615Z,23.31
2022-08-21T03:07:39.570Z,23.26
2022-08-21T03:08:39.559Z,23.26
2022-08-21T03:09:39.555Z,23.26
2022-08-21T03:10:40.559Z,23.26
2022-08-21T03:11:39.521Z,23.26
2022-08-21T03:12:39.508Z,23.31
2022-08-21T03:13:39.485Z,23.26
2022-08-21T03:14:39.478Z,23.20
2022-08-21T03:15:39.464Z,23.15
2022-08-21T03:16:39.457Z,23.20
2022-08-21T03:17:39.431Z,23.31
2022-08-21T03:18:39.947Z,23.26
2022-08-21T03:19:39.408Z,23.26
2022-08-21T03:20:39.395Z,23.31
2022-08-21T03:21:39.382Z,23.42
2022-08-21T03:22:39.368Z,22.93
2022-08-21T03:23:39.349Z,23.15
2022-08-21T03:24:39.339Z,23.42
2022-08-21T03:25:40.331Z,23.42
2022-08-21T03:26:41.421Z,23.26
2022-08-21T03:27:39.308Z,23.74
2022-08-21T03:28:39.293Z,23.26
2022-08-21T03:29:39.274Z,23.31
2022-08-21T03:30:39.266Z,23.47
2022-08-21T03:31:39.248Z,23.31
2022-08-21T03:32:39.241Z,23.36
2022-08-21T03:33:39.215Z,23.36
2022-08-21T03:34:39.208Z,23.26
2022-08-21T03:35:39.193Z,23.26
2022-08-21T03:36:39.186Z,23.36
2022-08-21T03:37:39.166Z,23.47
2022-08-21T03:38:39.164Z,23.26
2022-08-21T03:39:39.167Z,23.42
2022-08-21T03:40:39.131Z,23.20
2022-08-21T03:41:39.113Z,23.31
2022-08-21T03:42:39.106Z,23.26
2022-08-21T03:43:39.090Z,23.26
2022-08-21T03:44:39.077Z,23.36
2022-08-21T03:45:39.061Z,23.42
2022-08-21T03:46:39.054Z,23.31
2022-08-21T03:47:39.033Z,23.31
2022-08-21T03:48:39.028Z,23.04
2022-08-21T03:49:39.002Z,23.36
2022-08-21T03:50:40.662Z,23.42
2022-08-21T03:51:38.978Z,23.15
2022-08-21T03:52:38.973Z,23.26
2022-08-21T03:53:38.952Z,23.31
2022-08-21T03:54:38.949Z,23.31
2022-08-21T03:55:38.925Z,23.42
2022-08-21T03:56:38.914Z,23.36
2022-08-21T03:57:38.898Z,23.31
2022-08-21T03:58:38.891Z,23.47
2022-08-21T03:59:38.872Z,23.47
2022-08-21T04:00:38.858Z,23.36
2022-08-21T04:01:38.868Z,23.36
2022-08-21T04:02:38.832Z,23.10
2022-08-21T04:03:38.812Z,23.47
2022-08-21T04:04:38.804Z,23.42
2022-08-21T04:05:38.798Z,23.69
2022-08-21T04:06:38.776Z,23.20
2022-08-21T04:07:38.757Z,23.31
2022-08-21T04:08:38.751Z,23.36
2022-08-21T04:09:38.734Z,23.31
2022-08-21T04:10:38.726Z,23.42
2022-08-21T04:11:38.716Z,23.31
2022-08-21T04:12:38.700Z,23.47
2022-08-21T04:13:44.775Z,23.20
2022-08-21T04:14:39.692Z,23.36
2022-08-21T04:15:38.660Z,23.36
2022-08-21T04:16:38.641Z,23.31
2022-08-21T04:17:38.624Z,23.31
2022-08-21T04:18:38.613Z,23.26
2022-08-21T04:19:38.599Z,23.31
2022-08-21T04:20:38.584Z,23.31
2022-08-21T04:21:38.571Z,23.26
2022-08-21T04:22:38.565Z,23.36
2022-08-21T04:23:38.542Z,23.42
2022-08-21T04:24:38.539Z,23.53
2022-08-21T04:25:38.513Z,23.26
2022-08-21T04:26:38.506Z,23.31
2022-08-21T04:27:38.488Z,23.26
2022-08-21T04:28:38.477Z,23.26
2022-08-21T04:29:40.131Z,23.36
2022-08-21T04:30:38.451Z,23.42
2022-08-21T04:31:38.435Z,23.15
2022-08-21T04:32:38.720Z,23.20
2022-08-21T04:33:38.406Z,23.20
2022-08-21T04:34:38.394Z,23.74
2022-08-21T04:35:38.375Z,23.42
2022-08-21T04:36:38.365Z,23.26
2022-08-21T04:37:41.538Z,23.26
2022-08-21T04:38:38.339Z,23.42
2022-08-21T04:39:39.388Z,23.36
2022-08-21T04:40:38.315Z,23.26
2022-08-21T04:41:38.298Z,23.42
2022-08-21T04:42:38.285Z,23.26
2022-08-21T04:43:38.265Z,23.26
2022-08-21T04:44:38.257Z,23.26
2022-08-21T04:45:38.243Z,23.26
2022-08-21T04:46:38.231Z,23.26
2022-08-21T04:47:41.824Z,23.42
2022-08-21T04:48:39.227Z,23.31
2022-08-21T04:49:38.186Z,23.26
2022-08-21T04:50:38.176Z,23.31
2022-08-21T04:51:38.165Z,23.26
2022-08-21T04:52:38.151Z,23.26
2022-08-21T04:53:38.138Z,23.36
2022-08-21T04:54:38.122Z,23.31
2022-08-21T04:55:38.110Z,23.26
2022-08-21T04:56:38.096Z,23.31
2022-08-21T04:57:48.762Z,23.26
2022-08-21T04:58:39.095Z,23.36
2022-08-21T04:59:38.049Z,23.36
2022-08-21T05:00:38.039Z,23.26
2022-08-21T05:01:38.052Z,50.17
2022-08-21T05:02:38.014Z,50.17
2022-08-21T05:03:37.995Z,50.17
2022-08-21T05:04:37.985Z,38.24
2022-08-21T05:05:37.969Z,32.28
2022-08-21T05:06:37.981Z,30.24
2022-08-21T05:07:42.126Z,28.79
2022-08-21T05:08:37.934Z,28.20
2022-08-21T05:09:37.918Z,27.82
2022-08-21T05:10:37.902Z,27.82
2022-08-21T05:11:37.887Z,27.77
2022-08-21T05:12:37.875Z,27.55
2022-08-21T05:13:37.855Z,26.80
2022-08-21T05:14:37.856Z,26.48
2022-08-21T05:15:37.838Z,26.86
2022-08-21T05:16:38.023Z,26.59
2022-08-21T05:17:37.808Z,26.10
2022-08-21T05:18:37.800Z,26.10
2022-08-21T05:19:37.782Z,25.57
2022-08-21T05:20:37.770Z,26.00
2022-08-21T05:21:37.751Z,26.16
2022-08-21T05:22:37.736Z,25.57
2022-08-21T05:23:37.721Z,26.05
2022-08-21T05:24:37.713Z,26.00
2022-08-21T05:25:37.692Z,25.57
2022-08-21T05:26:38.272Z,25.35
2022-08-21T05:27:39.214Z,25.41
2022-08-21T05:28:37.655Z,25.46
2022-08-21T05:29:37.640Z,25.57
2022-08-21T05:30:37.634Z,25.57
2022-08-21T05:31:37.618Z,40.12
2022-08-21T05:32:37.611Z,50.17
2022-08-21T05:33:37.589Z,50.33
2022-08-21T05:34:37.585Z,34.54
2022-08-21T05:35:37.561Z,31.15
2022-08-21T05:36:37.557Z,29.27
2022-08-21T05:37:37.537Z,28.84
2022-08-21T05:38:37.525Z,28.20
2022-08-21T05:40:05.103Z,27.77
2022-08-21T05:40:38.538Z,27.88
2022-08-21T05:41:37.483Z,27.39
2022-08-21T05:42:37.491Z,26.75
2022-08-21T05:43:37.459Z,26.80
2022-08-21T05:44:37.451Z,26.48
2022-08-21T05:45:42.519Z,26.53
2022-08-21T05:46:38.436Z,26.59
2022-08-21T05:47:37.396Z,26.53
2022-08-21T05:48:37.391Z,26.00
2022-08-21T05:49:37.370Z,26.10
2022-08-21T05:50:37.362Z,26.26
2022-08-21T05:51:37.340Z,25.46
2022-08-21T05:52:37.332Z,25.57
2022-08-21T05:53:37.319Z,25.51
2022-08-21T05:54:37.310Z,25.73
2022-08-21T05:55:40.200Z,25.08
2022-08-21T05:56:37.287Z,25.14
2022-08-21T05:57:37.272Z,25.03
2022-08-21T05:58:37.257Z,24.76
2022-08-21T05:59:37.238Z,24.65
2022-08-21T06:00:37.230Z,24.65
2022-08-21T06:01:37.407Z,24.44
2022-08-21T06:02:37.195Z,24.65
2022-08-21T06:03:37.182Z,24.60
2022-08-21T06:04:37.168Z,24.49
2022-08-21T06:05:37.718Z,24.71
2022-08-21T06:06:37.141Z,24.65
2022-08-21T06:07:37.127Z,24.71
2022-08-21T06:08:37.118Z,24.06
2022-08-21T06:09:37.097Z,24.12
2022-08-21T06:10:37.091Z,24.22
2022-08-21T06:11:37.078Z,24.06
2022-08-21T06:12:37.067Z,24.01
2022-08-21T06:13:37.050Z,24.01
2022-08-21T06:14:37.037Z,24.12
2022-08-21T06:15:37.017Z,24.06
2022-08-21T06:16:37.011Z,24.17
2022-08-21T06:17:36.990Z,23.58
2022-08-21T06:18:36.982Z,23.69
2022-08-21T06:19:36.970Z,23.69
2022-08-21T06:20:36.960Z,23.69
2022-08-21T06:21:36.940Z,23.79
2022-08-21T06:22:36.931Z,23.63
2022-08-21T06:23:36.915Z,23.69
2022-08-21T06:24:36.911Z,23.85
2022-08-21T06:25:36.890Z,23.79
2022-08-21T06:26:36.870Z,24.22
2022-08-21T06:27:36.858Z,23.63
2022-08-21T06:28:36.851Z,24.12
2022-08-21T06:29:44.369Z,23.96
2022-08-21T06:30:37.834Z,23.20
2022-08-21T06:31:36.800Z,24.06
2022-08-21T06:32:36.790Z,24.17
2022-08-21T06:33:36.774Z,24.06
2022-08-21T06:34:36.773Z,23.69
2022-08-21T06:35:36.752Z,23.63
2022-08-21T06:36:36.743Z,23.79
2022-08-21T06:37:36.722Z,23.69
2022-08-21T06:38:37.066Z,23.74
2022-08-21T06:39:36.735Z,23.58
2022-08-21T06:40:36.685Z,23.63
2022-08-21T06:41:39.231Z,24.22
2022-08-21T06:42:36.661Z,23.69
2022-08-21T06:43:39.240Z,23.42
2022-08-21T06:44:36.629Z,23.79
2022-08-21T06:45:36.611Z,23.69
2022-08-21T06:46:36.609Z,23.74
2022-08-21T06:47:36.590Z,23.90
2022-08-21T06:48:36.578Z,23.36
2022-08-21T06:49:36.563Z,23.69
2022-08-21T06:50:36.546Z,23.36
2022-08-21T06:51:36.530Z,23.69
2022-08-21T06:52:36.522Z,23.69
2022-08-21T06:53:36.508Z,23.31
2022-08-21T06:54:36.496Z,23.74
2022-08-21T06:55:36.475Z,23.31
2022-08-21T06:56:36.468Z,23.74
2022-08-21T06:57:36.447Z,23.26
2022-08-21T06:58:36.443Z,23.31
2022-08-21T06:59:36.432Z,23.36
2022-08-21T07:00:36.416Z,23.36
2022-08-21T07:01:36.459Z,23.47
2022-08-21T07:02:36.393Z,23.36
2022-08-21T07:03:36.380Z,23.36
2022-08-21T07:04:36.368Z,23.04
2022-08-21T07:05:36.347Z,23.42
2022-08-21T07:06:36.338Z,23.20
2022-08-21T07:07:36.320Z,23.26
2022-08-21T07:08:36.307Z,23.31
2022-08-21T07:09:36.291Z,22.77
2022-08-21T07:10:36.286Z,23.20
2022-08-21T07:11:39.407Z,23.36
2022-08-21T07:12:37.273Z,23.36
2022-08-21T07:13:36.238Z,23.53
2022-08-21T07:14:36.235Z,23.36
2022-08-21T07:15:36.215Z,23.42
2022-08-21T07:16:36.209Z,23.47
2022-08-21T07:17:36.189Z,23.36
2022-08-21T07:18:36.174Z,23.31
2022-08-21T07:19:36.167Z,22.77
2022-08-21T07:20:36.147Z,22.67
2022-08-21T07:21:36.140Z,23.47
2022-08-21T07:22:36.119Z,23.26
2022-08-21T07:23:36.107Z,22.72
2022-08-21T07:24:36.096Z,23.36
2022-08-21T07:25:36.083Z,23.42
2022-08-21T07:26:36.069Z,22.67
2022-08-21T07:27:36.057Z,22.83
2022-08-21T07:28:36.039Z,22.72
2022-08-21T07:29:36.034Z,22.72
2022-08-21T07:30:36.049Z,22.61
2022-08-21T07:31:36.007Z,22.72
2022-08-21T07:32:35.993Z,22.93
2022-08-21T07:33:35.982Z,23.31
2022-08-21T07:34:35.970Z,23.42
2022-08-21T07:35:35.954Z,22.72
2022-08-21T07:36:35.939Z,22.83
2022-08-21T07:37:35.929Z,23.58
2022-08-21T07:38:35.913Z,22.83
2022-08-21T07:39:35.932Z,22.67
2022-08-21T07:40:35.885Z,22.83
2022-08-21T07:41:35.875Z,22.88
2022-08-21T07:42:35.863Z,22.77
2022-08-21T07:43:35.851Z,22.61
2022-08-21T07:44:35.833Z,22.93
2022-08-21T07:45:35.825Z,22.61
2022-08-21T07:46:35.811Z,22.67
2022-08-21T07:47:42.381Z,22.72
2022-08-21T07:48:36.811Z,22.72
2022-08-21T07:49:35.774Z,22.72
2022-08-21T07:50:35.753Z,22.72
2022-08-21T07:51:35.746Z,22.72
2022-08-21T07:52:35.728Z,22.77
2022-08-21T07:53:35.719Z,22.72
2022-08-21T07:54:35.714Z,22.72
2022-08-21T07:55:35.700Z,22.77
2022-08-21T07:56:35.686Z,22.45
2022-08-21T07:57:35.675Z,22.72
2022-08-21T07:58:35.655Z,22.83
2022-08-21T07:59:35.652Z,22.67
2022-08-21T08:00:35.632Z,22.77
2022-08-21T08:01:35.713Z,22.77
2022-08-21T08:02:35.601Z,22.56
2022-08-21T08:03:35.591Z,22.40
2022-08-21T08:04:35.576Z,22.77
2022-08-21T08:05:35.566Z,22.34
2022-08-21T08:06:35.549Z,22.34
2022-08-21T08:07:35.540Z,22.88
2022-08-21T08:08:35.681Z,22.77
2022-08-21T08:09:35.514Z,22.40
2022-08-21T08:10:35.505Z,22.77
2022-08-21T08:11:35.494Z,22.72
2022-08-21T08:12:35.477Z,22.40
2022-08-21T08:13:35.474Z,22.34
2022-08-21T08:14:35.451Z,22.24
2022-08-21T08:15:37.598Z,22.83
2022-08-21T08:16:35.427Z,22.72
2022-08-21T08:17:35.423Z,22.29
2022-08-21T08:18:35.398Z,22.29
2022-08-21T08:19:35.388Z,22.45
2022-08-21T08:20:35.372Z,22.34
2022-08-21T08:21:35.372Z,22.34
2022-08-21T08:22:35.351Z,22.24
2022-08-21T08:23:35.343Z,22.29
2022-08-21T08:24:35.327Z,22.77
2022-08-21T08:25:36.411Z,22.34
2022-08-21T08:26:35.299Z,22.34
2022-08-21T08:27:35.289Z,22.34
2022-08-21T08:28:35.277Z,22.40
2022-08-21T08:29:35.263Z,22.34
2022-08-21T08:30:35.247Z,22.67
2022-08-21T08:31:35.240Z,22.02
2022-08-21T08:32:35.222Z,22.29
2022-08-21T08:33:35.216Z,22.40
2022-08-21T08:34:35.205Z,22.34
2022-08-21T08:35:35.193Z,22.34
2022-08-21T08:36:35.177Z,22.29
2022-08-21T08:37:35.173Z,22.40
2022-08-21T08:38:35.152Z,22.29
2022-08-21T08:39:35.222Z,22.34
2022-08-21T08:40:35.126Z,22.34
2022-08-21T08:41:35.115Z,22.40
2022-08-21T08:42:35.106Z,22.29
2022-08-21T08:43:35.089Z,22.34
2022-08-21T08:44:35.344Z,22.40
2022-08-21T08:45:35.071Z,22.40
2022-08-21T08:46:35.051Z,22.29
2022-08-21T08:47:35.040Z,22.34
2022-08-21T08:48:35.026Z,22.45
2022-08-21T08:49:35.019Z,22.34
2022-08-21T08:50:35.003Z,22.56
2022-08-21T08:51:34.997Z,22.40
2022-08-21T08:52:34.980Z,22.40
2022-08-21T08:53:34.970Z,22.34
2022-08-21T08:54:34.961Z,21.97
2022-08-21T08:55:34.940Z,22.61
2022-08-21T08:56:34.925Z,22.40
2022-08-21T08:57:34.915Z,22.29
2022-08-21T08:58:34.947Z,22.40
2022-08-21T08:59:34.899Z,22.40
2022-08-21T09:00:34.883Z,22.40
2022-08-21T09:01:38.813Z,21.91
2022-08-21T09:02:34.862Z,22.02
2022-08-21T09:03:34.850Z,22.08
2022-08-21T09:04:34.834Z,22.40
2022-08-21T09:05:34.831Z,22.40
2022-08-21T09:06:34.803Z,22.34
2022-08-21T09:07:34.804Z,22.02
2022-08-21T09:08:34.790Z,21.91
2022-08-21T09:09:34.778Z,22.40
2022-08-21T09:10:34.754Z,22.08
2022-08-21T09:11:34.747Z,21.81
2022-08-21T09:12:34.737Z,21.91
2022-08-21T09:13:38.468Z,22.13
2022-08-21T09:14:34.714Z,21.97
2022-08-21T09:15:34.704Z,22.02
2022-08-21T09:16:34.687Z,22.02
2022-08-21T09:17:34.683Z,21.91
2022-08-21T09:18:34.666Z,22.34
2022-08-21T09:19:34.657Z,22.02
2022-08-21T09:20:34.643Z,21.86
2022-08-21T09:21:34.665Z,22.02
2022-08-21T09:22:34.637Z,21.91
2022-08-21T09:23:34.606Z,21.97
2022-08-21T09:24:34.589Z,21.91
2022-08-21T09:25:34.582Z,21.97
2022-08-21T09:26:34.573Z,22.02
2022-08-21T09:27:34.561Z,22.08
2022-08-21T09:28:34.544Z,21.97
2022-08-21T09:29:34.539Z,21.91
2022-08-21T09:30:34.518Z,21.91
2022-08-21T09:31:34.515Z,22.08
2022-08-21T09:32:36.822Z,21.97
2022-08-21T09:33:34.491Z,22.02
2022-08-21T09:34:34.519Z,21.97
2022-08-21T09:35:34.552Z,22.02
2022-08-21T09:36:34.455Z,22.02
2022-08-21T09:37:34.447Z,22.34
2022-08-21T09:38:34.462Z,21.97
2022-08-21T09:39:40.191Z,22.08
2022-08-21T09:40:35.518Z,22.08
2022-08-21T09:41:34.404Z,21.91
2022-08-21T09:42:34.389Z,21.48
2022-08-21T09:43:34.381Z,21.97
2022-08-21T09:44:34.368Z,21.97
2022-08-21T09:45:34.359Z,21.32
2022-08-21T09:46:34.337Z,21.97
2022-08-21T09:47:34.334Z,21.43
2022-08-21T09:48:34.315Z,21.38
2022-08-21T09:49:34.306Z,21.38
2022-08-21T09:50:34.292Z,21.38
2022-08-21T09:51:34.284Z,22.02
2022-08-21T09:52:34.270Z,22.02
2022-08-21T09:53:36.088Z,21.38
2022-08-21T09:54:34.251Z,21.38
2022-08-21T09:55:34.242Z,22.08
2022-08-21T09:56:34.229Z,21.22
2022-08-21T09:57:34.221Z,22.02
2022-08-21T09:58:34.202Z,21.70
2022-08-21T09:59:37.125Z,21.38
2022-08-21T10:00:34.259Z,21.43
2022-08-21T10:01:34.174Z,22.40
2022-08-21T10:02:34.156Z,50.38
2022-08-21T10:03:34.144Z,50.38
2022-08-21T10:04:34.133Z,47.70
2022-08-21T10:05:34.126Z,33.35
2022-08-21T10:06:34.110Z,29.59
2022-08-21T10:07:34.104Z,28.95
2022-08-21T10:08:34.089Z,28.25
2022-08-21T10:09:34.086Z,27.82
2022-08-21T10:10:34.063Z,28.04
2022-08-21T10:11:34.061Z,27.55
2022-08-21T10:12:34.042Z,26.96
2022-08-21T10:13:34.037Z,26.86
2022-08-21T10:14:34.024Z,26.53
2022-08-21T10:15:34.014Z,26.48
2022-08-21T10:16:34.001Z,26.05
2022-08-21T10:17:34.015Z,26.53
2022-08-21T10:18:33.978Z,26.16
2022-08-21T10:19:33.969Z,25.51
2022-08-21T10:20:33.955Z,25.51
2022-08-21T10:21:33.949Z,25.51
2022-08-21T10:22:33.934Z,25.03
2022-08-21T10:23:33.930Z,25.24
2022-08-21T10:24:33.917Z,25.08
2022-08-21T10:25:33.903Z,25.14
2022-08-21T10:26:33.884Z,25.19
2022-08-21T10:27:33.879Z,24.76
2022-08-21T10:28:33.864Z,24.98
2022-08-21T10:29:33.868Z,24.92
2022-08-21T10:30:33.839Z,24.76
2022-08-21T10:31:33.834Z,24.81
2022-08-21T10:32:33.820Z,24.12
2022-08-21T10:33:33.815Z,24.38
2022-08-21T10:34:33.798Z,24.17
2022-08-21T10:35:33.794Z,24.17
2022-08-21T10:36:33.775Z,24.22
2022-08-21T10:37:33.771Z,24.12
2022-08-21T10:38:50.497Z,23.74
2022-08-21T10:39:36.239Z,24.33
2022-08-21T10:40:33.736Z,24.17
2022-08-21T10:41:33.725Z,23.79
2022-08-21T10:42:33.709Z,24.12
2022-08-21T10:43:33.755Z,23.90
2022-08-21T10:44:33.691Z,23.63
2022-08-21T10:45:33.684Z,23.74
2022-08-21T10:46:33.672Z,23.74
2022-08-21T10:47:33.664Z,23.90
2022-08-21T10:48:33.649Z,23.74
2022-08-21T10:49:33.648Z,23.74
2022-08-21T10:50:33.627Z,23.79
2022-08-21T10:51:33.627Z,23.74
2022-08-21T10:52:33.607Z,23.42
2022-08-21T10:53:33.610Z,23.74
2022-08-21T10:54:33.591Z,23.36
2022-08-21T10:55:33.598Z,23.36
2022-08-21T10:56:33.568Z,23.47
2022-08-21T10:57:33.566Z,23.36
2022-08-21T10:58:33.545Z,23.31
2022-08-21T10:59:38.096Z,23.31
2022-08-21T11:00:33.547Z,23.47
2022-08-21T11:01:33.517Z,23.31
2022-08-21T11:02:33.508Z,23.10
2022-08-21T11:03:33.505Z,23.31
2022-08-21T11:04:39.639Z,23.58
2022-08-21T11:05:34.647Z,23.04
2022-08-21T11:06:33.467Z,23.36
2022-08-21T11:07:34.462Z,22.72
2022-08-21T11:08:33.448Z,23.74
2022-08-21T11:09:33.437Z,23.15
2022-08-21T11:10:33.423Z,22.93
2022-08-21T11:11:36.210Z,22.83
2022-08-21T11:12:33.400Z,22.83
2022-08-21T11:13:33.385Z,22.72
2022-08-21T11:14:33.378Z,22.72
2022-08-21T11:15:34.019Z,23.58
2022-08-21T11:16:33.360Z,22.99
2022-08-21T11:17:33.342Z,22.83
2022-08-21T11:18:33.331Z,22.50
2022-08-21T11:19:33.321Z,22.88
2022-08-21T11:20:33.305Z,22.83
2022-08-21T11:21:33.301Z,23.04
2022-08-21T11:22:33.283Z,22.77
2022-08-21T11:23:33.271Z,22.88
2022-08-21T11:24:33.258Z,22.83
2022-08-21T11:25:36.455Z,22.72
2022-08-21T11:26:33.244Z,22.93
2022-08-21T11:27:33.238Z,22.83
2022-08-21T11:28:33.224Z,22.72
2022-08-21T11:29:33.216Z,22.88
2022-08-21T11:30:33.203Z,22.72
2022-08-21T11:31:33.199Z,22.72
2022-08-21T11:32:33.183Z,22.93
2022-08-21T11:33:33.195Z,22.83
2022-08-21T11:34:33.187Z,22.83
2022-08-21T11:35:33.154Z,22.77
2022-08-21T11:36:33.139Z,22.93
2022-08-21T11:37:33.133Z,22.72
2022-08-21T11:38:33.122Z,22.77
2022-08-21T11:39:33.109Z,22.56
2022-08-21T11:40:33.112Z,22.83
2022-08-21T11:41:33.091Z,22.83
2022-08-21T11:42:33.200Z,22.99
2022-08-21T11:43:33.065Z,22.40
2022-08-21T11:44:33.060Z,22.45
2022-08-21T11:45:33.051Z,22.83
2022-08-21T11:46:33.040Z,22.77
2022-08-21T11:47:33.026Z,22.77
2022-08-21T11:48:33.017Z,22.56
2022-08-21T11:49:33.008Z,22.83
2022-08-21T11:50:35.465Z,22.40
2022-08-21T11:51:32.984Z,22.40
2022-08-21T11:52:32.979Z,22.40
2022-08-21T11:53:32.960Z,22.45
2022-08-21T11:54:32.968Z,22.40
2022-08-21T11:55:32.951Z,22.40
2022-08-21T11:56:32.935Z,22.45
2022-08-21T11:57:32.931Z,22.40
2022-08-21T11:58:32.915Z,22.72
2022-08-21T11:59:35.546Z,22.56
2022-08-21T12:00:32.905Z,22.13
2022-08-21T12:01:32.947Z,22.83
2022-08-21T12:02:32.870Z,22.40
2022-08-21T12:03:32.855Z,22.34
2022-08-21T12:04:32.848Z,22.40
2022-08-21T12:05:32.839Z,22.40
2022-08-21T12:06:33.025Z,22.34
2022-08-21T12:07:32.940Z,22.45
2022-08-21T12:08:32.803Z,22.40
2022-08-21T12:09:32.791Z,22.34
2022-08-21T12:10:32.793Z,22.45
2022-08-21T12:11:32.767Z,22.34
2022-08-21T12:12:32.767Z,22.40
2022-08-21T12:13:40.023Z,22.29
2022-08-21T12:14:33.772Z,22.45
2022-08-21T12:15:32.816Z,21.97
2022-08-21T12:16:32.719Z,22.34
2022-08-21T12:17:32.710Z,22.18
2022-08-21T12:18:32.695Z,22.77
2022-08-21T12:19:32.687Z,22.77
2022-08-21T12:20:32.670Z,22.45
2022-08-21T12:21:32.656Z,22.02
2022-08-21T12:22:32.652Z,22.40
2022-08-21T12:23:32.637Z,22.02
2022-08-21T12:24:32.631Z,22.18
2022-08-21T12:25:32.610Z,22.34
2022-08-21T12:26:32.607Z,22.34
2022-08-21T12:27:32.592Z,22.29
2022-08-21T12:28:32.584Z,21.91
2022-08-21T12:29:32.574Z,22.45
2022-08-21T12:30:32.563Z,22.02
2022-08-21T12:31:32.547Z,22.18
2022-08-21T12:32:32.548Z,22.40
2022-08-21T12:33:32.530Z,22.34
2022-08-21T12:34:32.520Z,22.08
2022-08-21T12:35:32.499Z,21.97
2022-08-21T12:36:36.920Z,22.02
2022-08-21T12:37:33.505Z,21.70
2022-08-21T12:38:32.474Z,21.97
2022-08-21T12:39:32.459Z,22.40
2022-08-21T12:40:32.458Z,22.02
2022-08-21T12:41:32.431Z,22.34
2022-08-21T12:42:32.435Z,22.34
2022-08-21T12:43:32.464Z,22.18
2022-08-21T12:44:32.806Z,21.97
2022-08-21T12:45:32.391Z,22.45
2022-08-21T12:46:32.384Z,22.45
2022-08-21T12:47:32.373Z,22.40
2022-08-21T12:48:32.374Z,22.02
2022-08-21T12:49:32.342Z,21.97
2022-08-21T12:50:32.337Z,22.02
2022-08-21T12:51:32.327Z,21.91
2022-08-21T12:52:36.949Z,22.02
2022-08-21T12:53:33.334Z,22.29